createdAt,value
2022-10-23T00:04:51.005Z,0
2022-10-23T00:09:51.002Z,0
2022-10-23T00:14:50.973Z,0
2022-10-23T00:42:03.413Z,0
2022-10-23T00:45:13.006Z,0
2022-10-23T00:49:51.247Z,0
2022-10-23T00:54:56.732Z,0
2022-10-23T00:59:51.333Z,0
2022-10-23T01:04:51.150Z,0
2022-10-23T01:09:51.122Z,0
2022-10-23T01:14:51.112Z,0
2022-10-23T01:19:50.962Z,0
2022-10-23T01:24:50.993Z,0
2022-10-23T01:29:51.033Z,0
2022-10-23T01:34:52.937Z,0
2022-10-23T01:39:50.976Z,0
2022-10-23T01:44:50.979Z,0
2022-10-23T01:49:50.980Z,0
2022-10-23T01:54:51.014Z,0
2022-10-23T01:59:51.041Z,0
2022-10-23T02:04:51.009Z,0
2022-10-23T02:09:50.976Z,0
2022-10-23T02:14:51.031Z,0
2022-10-23T02:19:50.956Z,0
2022-10-23T02:24:50.986Z,0
2022-10-23T02:29:51.007Z,0
2022-10-23T02:34:50.982Z,0
2022-10-23T02:39:50.997Z,0
2022-10-23T02:44:50.949Z,0
2022-10-23T02:49:50.963Z,0
2022-10-23T02:54:50.946Z,0
2022-10-23T02:59:50.971Z,0
2022-10-23T03:04:51.061Z,0
2022-10-23T03:09:50.998Z,0
2022-10-23T03:14:51.025Z,0
2022-10-23T03:19:51.007Z,0
2022-10-23T03:24:51.007Z,0
2022-10-23T03:29:51.127Z,0
2022-10-23T03:34:50.994Z,0
2022-10-23T03:39:51.003Z,0
2022-10-23T03:44:50.983Z,0
2022-10-23T03:49:50.990Z,0
2022-10-23T03:54:51.059Z,0
2022-10-23T03:59:51.185Z,0
2022-10-23T04:04:51.042Z,0
2022-10-23T04:09:51.090Z,0
2022-10-23T04:14:50.996Z,0
2022-10-23T04:19:50.991Z,0
2022-10-23T04:24:51.021Z,0
2022-10-23T04:29:53.203Z,0
2022-10-23T04:34:50.998Z,0
2022-10-23T04:39:51.076Z,0
2022-10-23T04:44:51.030Z,0
2022-10-23T04:49:50.967Z,0
2022-10-23T04:54:51.004Z,0
2022-10-23T04:59:51.072Z,0
2022-10-23T05:04:51.058Z,0
2022-10-23T05:09:51.105Z,0
2022-10-23T05:14:51.051Z,0
2022-10-23T05:19:50.982Z,0
2022-10-23T05:24:51.111Z,0
2022-10-23T05:29:51.009Z,260
2022-10-23T05:34:51.019Z,273
2022-10-23T05:39:51.003Z,281
2022-10-23T05:44:51.006Z,268
2022-10-23T05:49:51.008Z,270
2022-10-23T05:54:51.092Z,283
2022-10-23T05:59:51.097Z,300
2022-10-23T06:04:51.080Z,320
2022-10-23T06:09:51.024Z,336
2022-10-23T06:14:51.896Z,344
2022-10-23T06:19:51.058Z,368
2022-10-23T06:24:51.004Z,417
2022-10-23T06:29:51.062Z,539
2022-10-23T06:34:51.008Z,617
2022-10-23T06:39:51.070Z,737
2022-10-23T06:44:50.999Z,769
2022-10-23T06:49:51.047Z,656
2022-10-23T06:54:51.069Z,747
2022-10-23T06:59:51.054Z,716
2022-10-23T07:04:51.084Z,747
2022-10-23T07:09:51.042Z,774
2022-10-23T07:14:51.000Z,836
2022-10-23T07:19:51.169Z,947
2022-10-23T07:24:51.017Z,944
2022-10-23T07:29:51.035Z,1190
2022-10-23T07:34:51.042Z,1317
2022-10-23T07:39:51.041Z,1358
2022-10-23T07:44:51.007Z,1313
2022-10-23T07:49:51.099Z,1539
2022-10-23T07:54:51.138Z,2632
2022-10-23T07:59:51.068Z,3789
2022-10-23T08:04:51.161Z,2883
2022-10-23T08:09:51.146Z,7932
2022-10-23T08:14:51.052Z,3751
2022-10-23T08:19:51.020Z,4709
2022-10-23T08:24:51.083Z,1828
2022-10-23T08:29:51.043Z,2843
2022-10-23T08:34:51.075Z,9840
2022-10-23T08:39:52.581Z,7475
2022-10-23T08:44:51.090Z,9172
2022-10-23T08:49:51.051Z,11087
2022-10-23T08:54:51.117Z,4089
2022-10-23T08:59:51.022Z,2877
2022-10-23T09:04:50.997Z,5133
2022-10-23T09:09:51.082Z,5168
2022-10-23T09:14:51.087Z,8320
2022-10-23T09:19:51.053Z,4353
2022-10-23T09:24:52.992Z,4691
2022-10-23T09:29:51.145Z,2048
2022-10-23T09:34:51.094Z,2589
2022-10-23T09:39:51.112Z,4310
2022-10-23T09:44:51.009Z,2778
2022-10-23T09:49:51.078Z,2299
2022-10-23T09:54:51.019Z,1977
2022-10-23T09:59:51.083Z,1762
2022-10-23T10:04:51.818Z,1688
2022-10-23T10:09:51.087Z,1678
2022-10-23T10:14:51.120Z,1653
2022-10-23T10:19:51.039Z,1565
2022-10-23T10:24:51.114Z,1542
2022-10-23T10:29:51.037Z,1560
2022-10-23T10:34:51.027Z,1468
2022-10-23T10:39:51.051Z,1361
2022-10-23T10:44:51.078Z,1293
2022-10-23T10:49:51.074Z,1224
2022-10-23T10:54:51.035Z,1147
2022-10-23T10:59:51.086Z,1149
2022-10-23T11:04:51.072Z,1084
2022-10-23T11:09:51.071Z,1006
2022-10-23T11:14:51.143Z,908
2022-10-23T11:19:51.042Z,896
2022-10-23T11:24:51.545Z,910
2022-10-23T11:29:51.105Z,1091
2022-10-23T11:34:51.066Z,980
2022-10-23T11:39:51.179Z,992
2022-10-23T11:44:51.120Z,1224
2022-10-23T11:49:51.104Z,1175
2022-10-23T11:54:51.087Z,1113
2022-10-23T11:59:51.196Z,1167
2022-10-23T12:04:51.136Z,1004
2022-10-23T12:09:51.158Z,992
2022-10-23T12:14:51.116Z,1080
2022-10-23T12:19:51.079Z,1009
2022-10-23T12:24:51.107Z,920
2022-10-23T12:29:51.113Z,853
2022-10-23T12:34:51.095Z,833
2022-10-23T12:39:51.101Z,928
2022-10-23T12:44:51.230Z,979
2022-10-23T12:49:51.112Z,1005
2022-10-23T12:54:51.281Z,1004
2022-10-23T12:59:51.128Z,908
2022-10-23T13:04:51.068Z,857
2022-10-23T13:09:51.147Z,856
2022-10-23T13:14:51.194Z,787
2022-10-23T13:19:51.187Z,744
2022-10-23T13:24:51.083Z,652
2022-10-23T13:29:51.075Z,726
2022-10-23T13:34:58.031Z,718
2022-10-23T13:39:51.106Z,665
2022-10-23T13:44:51.206Z,637
2022-10-23T13:49:51.114Z,693
2022-10-23T13:54:51.129Z,718
2022-10-23T13:59:51.117Z,630
2022-10-23T14:04:51.163Z,614
2022-10-23T14:09:51.095Z,627
2022-10-23T14:14:51.092Z,607
2022-10-23T14:19:51.126Z,675
2022-10-23T14:24:51.172Z,638
2022-10-23T14:29:51.208Z,668
2022-10-23T14:34:51.287Z,663
2022-10-23T14:39:51.123Z,618
2022-10-23T14:44:51.191Z,579
2022-10-23T14:49:51.130Z,597
2022-10-23T14:54:51.156Z,537
2022-10-23T14:59:51.117Z,502
2022-10-23T15:04:51.158Z,502
2022-10-23T15:09:51.100Z,502
2022-10-23T15:14:51.144Z,458
2022-10-23T15:19:51.122Z,432
2022-10-23T15:24:51.296Z,374
2022-10-23T15:29:51.229Z,341
2022-10-23T15:34:51.186Z,327
2022-10-23T15:39:51.194Z,298
2022-10-23T15:44:51.121Z,292
2022-10-23T15:49:51.154Z,282
2022-10-23T15:54:51.145Z,269
2022-10-23T15:59:51.228Z,266
2022-10-23T16:04:51.235Z,261
2022-10-23T16:09:51.214Z,259
2022-10-23T16:14:51.250Z,257
2022-10-23T16:19:51.341Z,0
2022-10-23T16:24:51.223Z,0
2022-10-23T16:29:51.186Z,0
2022-10-23T16:34:51.222Z,0
2022-10-23T16:39:51.158Z,0
2022-10-23T16:44:51.952Z,0
2022-10-23T16:49:51.166Z,0
2022-10-23T16:54:51.181Z,0
2022-10-23T16:59:51.178Z,0
2022-10-23T17:04:51.269Z,0
2022-10-23T17:09:51.390Z,0
2022-10-23T17:14:51.312Z,0
2022-10-23T17:19:51.142Z,0
2022-10-23T17:24:53.069Z,0
2022-10-23T17:29:51.166Z,0
2022-10-23T17:34:51.171Z,0
2022-10-23T17:39:51.282Z,0
2022-10-23T17:44:51.244Z,0
2022-10-23T17:49:51.162Z,0
2022-10-23T17:54:51.154Z,0
2022-10-23T17:59:51.170Z,0
2022-10-23T18:04:51.169Z,0
2022-10-23T18:09:51.156Z,0
2022-10-23T18:14:51.169Z,0
2022-10-23T18:19:51.182Z,0
2022-10-23T18:24:51.209Z,0
2022-10-23T18:39:51.181Z,0
2022-10-23T18:44:51.181Z,0
2022-10-23T18:49:51.152Z,0
2022-10-23T18:54:51.121Z,0
2022-10-23T18:59:51.156Z,0
2022-10-23T19:04:51.190Z,0
2022-10-23T19:09:51.183Z,0
2022-10-23T19:14:51.217Z,0
2022-10-23T19:19:51.205Z,0
2022-10-23T19:24:51.173Z,0
2022-10-23T19:29:51.212Z,0
2022-10-23T19:34:51.194Z,0
2022-10-23T19:39:51.470Z,0
2022-10-23T19:44:51.296Z,0
2022-10-23T19:49:51.176Z,0
2022-10-23T19:54:51.165Z,0
2022-10-23T19:59:52.917Z,0
2022-10-23T20:04:51.183Z,0
2022-10-23T20:09:51.155Z,0
2022-10-23T20:14:51.172Z,0
2022-10-23T20:19:51.238Z,0
2022-10-23T20:24:51.176Z,0
2022-10-23T20:29:51.258Z,0
2022-10-23T20:34:51.248Z,0
2022-10-23T20:39:51.272Z,0
2022-10-23T20:44:51.218Z,0
2022-10-23T20:49:51.209Z,0
2022-10-23T20:54:51.163Z,0
2022-10-23T20:59:51.190Z,0
2022-10-23T21:04:51.148Z,0
2022-10-23T21:09:51.229Z,0
2022-10-23T21:14:51.218Z,0
2022-10-23T21:19:51.263Z,0
2022-10-23T21:24:51.277Z,0
2022-10-23T21:29:51.156Z,0
2022-10-23T21:34:51.242Z,0
2022-10-23T21:39:51.287Z,0
2022-10-23T21:44:51.336Z,0
2022-10-23T21:49:51.320Z,0
2022-10-23T21:54:51.211Z,0
2022-10-23T21:59:51.211Z,0
2022-10-23T22:04:51.212Z,0
2022-10-23T22:09:51.251Z,0
2022-10-23T22:14:51.359Z,0
2022-10-23T22:19:51.201Z,0
2022-10-23T22:24:51.244Z,0
2022-10-23T22:29:51.228Z,0
2022-10-23T22:34:53.635Z,0
2022-10-23T22:39:51.260Z,0
2022-10-23T22:44:51.236Z,0
2022-10-23T22:49:51.210Z,0
2022-10-23T22:54:51.286Z,0
2022-10-23T22:59:51.231Z,0
2022-10-23T23:04:51.358Z,0
2022-10-23T23:09:51.321Z,0
2022-10-23T23:14:51.214Z,0
2022-10-23T23:19:51.354Z,0
2022-10-23T23:24:51.394Z,0
2022-10-23T23:29:51.350Z,0
2022-10-23T23:34:51.322Z,0
2022-10-23T23:39:51.341Z,0
2022-10-23T23:45:02.209Z,0
2022-10-23T23:49:51.242Z,0
2022-10-23T23:54:51.248Z,0
2022-10-23T23:59:51.275Z,0
